Time;durP1;ratioP1;P1;durP2;ratioP2;P2;SDS_P1;SDS_P2;PMS_P1;PMS_P2;Temp;Humidity;BMP_temperature;BMP_pressure;BME280_temperature;BME280_humidity;BME280_pressure;Samples;Min_cycle;Max_cycle;Signal;HPM_P1;HPM_P2
2021/06/05 00:01:24;;;;;;;;;;;;;;;25.88;37.36;101351.28;5036385;28;1902;-34
2021/06/05 00:03:50;;;;;;;;;;;;;;;25.88;37.53;101362.91;5003179;28;983;-45
2021/06/05 00:06:17;;;;;;;;;;;;;;;25.86;37.89;101366.78;4997357;28;780;-43
2021/06/05 00:08:42;;;;;;;;;;;;;;;25.87;38.00;101357.69;4996756;28;840;-44
2021/06/05 00:11:09;;;;;;;;;;;;;;;25.90;37.31;101362.75;4996695;28;797;-37
2021/06/05 00:13:36;;;;;;;;;;;;;;;25.90;37.79;101358.22;4996951;28;1090;-46
2021/06/05 00:16:01;;;;;;;;;;;;;;;25.90;37.41;101357.38;4997390;28;743;-36
2021/06/05 00:18:28;;;;;;;;;;;;;;;25.89;37.30;101348.44;4996441;28;1005;-36
2021/06/05 00:20:54;;;;;;;;;;;;;;;25.87;37.48;101350.47;4996961;28;1977;-36
2021/06/05 00:23:19;;;;;;;;;;;;;;;25.88;37.78;101349.44;4996918;28;801;-37
2021/06/05 00:25:45;;;;;;;;;;;;;;;25.92;37.59;101347.28;4996979;28;791;-48
2021/06/05 00:28:10;;;;;;;;;;;;;;;25.91;37.47;101341.03;4997354;28;733;-38
2021/06/05 00:30:35;;;;;;;;;;;;;;;25.90;37.65;101346.59;4996380;28;725;-36
2021/06/05 00:33:01;;;;;;;;;;;;;;;25.94;37.58;101342.59;4996477;28;1008;-34
2021/06/05 00:35:27;;;;;;;;;;;;;;;25.95;37.61;101338.88;4997114;28;756;-40
2021/06/05 00:37:52;;;;;;;;;;;;;;;25.93;37.76;101338.19;4996551;28;837;-44
2021/06/05 00:40:18;;;;;;;;;;;;;;;25.94;37.70;101330.94;4996945;28;2035;-45
2021/06/05 00:42:43;;;;;;;;;;;;;;;25.90;37.75;101335.81;4997019;28;800;-35
2021/06/05 00:45:09;;;;;;;;;;;;;;;25.92;37.73;101334.63;4996620;28;785;-46
2021/06/05 00:47:34;;;;;;;;;;;;;;;25.95;37.53;101333.47;4996569;28;1000;-39
2021/06/05 00:49:59;;;;;;;;;;;;;;;25.90;37.87;101328.56;4996822;28;756;-36
2021/06/05 00:52:25;;;;;;;;;;;;;;;25.90;37.80;101333.97;5017464;28;1079;-48
2021/06/05 00:54:50;;;;;;;;;;;;;;;25.92;37.84;101323.03;5018455;28;1183;-43
2021/06/05 00:57:15;;;;;;;;;;;;;;;25.90;37.66;101333.09;5018316;28;828;-42
2021/06/05 00:59:41;;;;;;;;;;;;;;;25.94;37.22;101329.09;5035705;28;1965;-47
2021/06/05 01:02:06;;;;;;;;;;;;;;;25.93;37.09;101327.41;5030690;28;948;-37
2021/06/05 01:04:31;;;;;;;;;;;;;;;25.92;37.65;101326.53;4996755;28;880;-35
2021/06/05 01:07:23;;;;;;;;;;;;;;;25.94;37.49;101320.16;4996245;28;953;-47
2021/06/05 01:09:59;;;;;;;;;;;;;;;25.90;37.71;101319.63;4993775;28;1624;-49
2021/06/05 01:12:25;;;;;;;;;;;;;;;25.89;37.39;101321.47;4996655;28;819;-37
2021/06/05 01:14:58;;;;;;;;;;;;;;;25.91;37.55;101321.31;4995831;28;1082;-36
2021/06/05 01:17:33;;;;;;;;;;;;;;;25.87;37.97;101315.44;4978791;28;973;-44
2021/06/05 01:20:07;;;;;;;;;;;;;;;25.88;37.94;101318.94;4996380;28;1914;-34
2021/06/05 01:22:41;;;;;;;;;;;;;;;25.88;37.96;101316.25;4978936;28;818;-35
2021/06/05 01:25:06;;;;;;;;;;;;;;;25.89;37.71;101320.66;4996295;28;836;-48
2021/06/05 01:27:34;;;;;;;;;;;;;;;25.86;37.87;101319.09;4995983;28;840;-41
2021/06/05 01:30:00;;;;;;;;;;;;;;;25.93;37.45;101322.00;4979263;28;738;-38
2021/06/05 01:32:26;;;;;;;;;;;;;;;25.91;37.64;101316.78;4978340;28;1004;-39
2021/06/05 01:34:52;;;;;;;;;;;;;;;25.91;37.46;101321.31;4996573;28;727;-41
2021/06/05 01:37:17;;;;;;;;;;;;;;;25.91;37.30;101321.31;4996358;28;815;-37
2021/06/05 01:39:45;;;;;;;;;;;;;;;25.91;37.29;101318.63;4996129;28;1963;-34
2021/06/05 01:42:11;;;;;;;;;;;;;;;25.92;37.23;101323.84;4996421;28;815;-37
2021/06/05 01:44:37;;;;;;;;;;;;;;;25.87;37.31;101318.13;4978853;28;741;-40
2021/06/05 01:47:02;;;;;;;;;;;;;;;25.92;37.46;101315.75;4978641;28;996;-35
2021/06/05 01:49:28;;;;;;;;;;;;;;;25.92;37.36;101318.44;4996229;28;792;-45
2021/06/05 01:51:54;;;;;;;;;;;;;;;25.90;37.69;101319.63;5011118;28;1074;-36
2021/06/05 01:54:30;;;;;;;;;;;;;;;25.94;37.29;101322.84;5021293;28;861;-35
2021/06/05 01:56:56;;;;;;;;;;;;;;;25.91;37.22;101316.78;5038823;28;844;-40
2021/06/05 01:59:21;;;;;;;;;;;;;;;25.91;37.44;101313.22;5020912;28;1898;-35
2021/06/05 02:01:47;;;;;;;;;;;;;;;25.92;37.29;101317.63;5037596;28;952;-37
2021/06/05 02:04:12;;;;;;;;;;;;;;;25.91;38.05;101326.69;5001247;28;949;-36
2021/06/05 02:06:38;;;;;;;;;;;;;;;25.85;37.64;101320.13;4999792;28;863;-49
2021/06/05 02:09:04;;;;;;;;;;;;;;;25.85;37.52;101328.22;4981848;28;804;-45
2021/06/05 02:11:30;;;;;;;;;;;;;;;25.86;37.89;101324.50;4999835;28;796;-34
2021/06/05 02:14:04;;;;;;;;;;;;;;;25.85;37.59;101322.81;4981705;28;1130;-37
2021/06/05 02:16:31;;;;;;;;;;;;;;;25.88;37.31;101316.25;4999247;28;801;-38
2021/06/05 02:19:00;;;;;;;;;;;;;;;25.84;37.34;101320.28;4981478;28;1005;-42
2021/06/05 02:21:25;;;;;;;;;;;;;;;25.85;37.44;101324.66;4998970;28;1898;-37
2021/06/05 02:23:55;;;;;;;;;;;;;;;25.87;37.74;101325.34;4981698;28;879;-37
2021/06/05 02:26:21;;;;;;;;;;;;;;;25.88;37.44;101319.78;4999342;28;792;-42
2021/06/05 02:28:48;;;;;;;;;;;;;;;25.88;37.49;101325.19;4981159;28;852;-43
2021/06/05 02:31:13;;;;;;;;;;;;;;;25.86;37.79;101315.59;4981579;28;761;-41
2021/06/05 02:33:39;;;;;;;;;;;;;;;25.89;37.49;101323.34;4981312;28;977;-34
2021/06/05 02:36:05;;;;;;;;;;;;;;;25.87;37.56;101317.25;4981132;28;848;-37
2021/06/05 02:38:30;;;;;;;;;;;;;;;25.87;37.55;101319.97;4998945;28;772;-37
2021/06/05 02:40:56;;;;;;;;;;;;;;;25.87;37.24;101306.47;4998441;28;1955;-43
2021/06/05 02:43:22;;;;;;;;;;;;;;;25.88;37.30;101313.56;4980908;28;821;-34
2021/06/05 02:45:49;;;;;;;;;;;;;;;25.87;37.58;101314.56;4981301;28;852;-43
2021/06/05 02:48:14;;;;;;;;;;;;;;;25.84;37.47;101314.91;4981024;28;945;-33
2021/06/05 02:50:44;;;;;;;;;;;;;;;25.81;37.55;101310.66;4998537;28;815;-31
2021/06/05 02:53:09;;;;;;;;;;;;;;;25.79;36.99;101312.69;5014261;28;1321;-36
2021/06/05 02:55:35;;;;;;;;;;;;;;;25.85;37.01;101309.34;5038207;28;753;-45
2021/06/05 02:58:00;;;;;;;;;;;;;;;25.86;36.69;101315.59;5020199;28;838;-33
2021/06/05 03:00:33;;;;;;;;;;;;;;;25.83;37.39;101318.56;5037594;28;1894;-44
2021/06/05 03:02:58;;;;;;;;;;;;;;;25.88;37.30;101319.78;5017672;28;959;-42
2021/06/05 03:05:24;;;;;;;;;;;;;;;25.86;37.27;101316.41;4998100;28;749;-41
2021/06/05 03:07:49;;;;;;;;;;;;;;;25.88;37.31;101316.25;4998243;28;855;-47
2021/06/05 03:10:14;;;;;;;;;;;;;;;25.83;37.82;101322.13;4998014;28;1051;-39
2021/06/05 03:12:40;;;;;;;;;;;;;;;25.84;38.05;101313.03;4997883;28;1291;-37
2021/06/05 03:15:07;;;;;;;;;;;;;;;25.98;37.10;101318.81;4998281;28;786;-43
2021/06/05 03:17:32;;;;;;;;;;;;;;;26.00;36.89;101319.50;4988818;28;1287;-35
2021/06/05 03:19:58;;;;;;;;;;;;;;;25.87;37.09;101325.34;4997645;28;1906;-43
2021/06/05 03:22:23;;;;;;;;;;;;;;;25.85;37.43;101325.50;4998267;28;809;-45
2021/06/05 03:24:48;;;;;;;;;;;;;;;25.82;37.04;101323.13;4997930;28;1428;-35
2021/06/05 03:27:13;;;;;;;;;;;;;;;25.84;37.05;101325.69;4997811;28;844;-36
2021/06/05 03:29:39;;;;;;;;;;;;;;;25.85;37.43;101319.25;4997738;28;749;-44
2021/06/05 03:32:04;;;;;;;;;;;;;;;25.87;37.18;101320.81;4997822;28;1020;-38
2021/06/05 03:34:30;;;;;;;;;;;;;;;25.87;36.49;101328.91;4997816;28;773;-36
2021/06/05 03:36:55;;;;;;;;;;;;;;;25.91;37.13;101322.16;4997326;28;933;-35
2021/06/05 03:39:20;;;;;;;;;;;;;;;25.87;37.11;101323.50;4997889;28;1898;-37
2021/06/05 03:41:46;;;;;;;;;;;;;;;25.90;37.12;101320.50;4997713;28;876;-46
2021/06/05 03:44:11;;;;;;;;;;;;;;;25.92;37.28;101315.75;4997578;28;784;-46
2021/06/05 03:46:37;;;;;;;;;;;;;;;25.66;34.92;101311.25;4997570;28;768;-42
2021/06/05 03:49:02;;;;;;;;;;;;;;;25.41;34.71;101313.75;4996938;28;946;-39
2021/06/05 03:51:27;;;;;;;;;;;;;;;25.26;34.45;101316.16;5002944;28;1137;-44
2021/06/05 03:53:53;;;;;;;;;;;;;;;25.21;34.35;101312.28;5018873;28;1118;-37
2021/06/05 03:56:18;;;;;;;;;;;;;;;25.07;34.90;101317.22;5037073;28;757;-37
2021/06/05 03:58:44;;;;;;;;;;;;;;;25.31;35.65;101311.16;5036679;28;848;-38
2021/06/05 04:01:10;;;;;;;;;;;;;;;24.50;36.19;101313.78;5036005;28;1899;-40
2021/06/05 04:03:35;;;;;;;;;;;;;;;24.51;36.35;101314.59;5007717;28;964;-33
2021/06/05 04:06:01;;;;;;;;;;;;;;;24.24;36.48;101317.16;4997384;28;899;-37
2021/06/05 04:08:26;;;;;;;;;;;;;;;24.29;36.74;101304.13;4997153;28;788;-33
2021/06/05 04:10:52;;;;;;;;;;;;;;;24.35;36.77;101305.38;4997337;28;899;-36
2021/06/05 04:13:18;;;;;;;;;;;;;;;24.21;36.63;101309.41;4996644;28;1067;-38
2021/06/05 04:15:43;;;;;;;;;;;;;;;24.06;37.31;101306.34;4997455;28;822;-43
2021/06/05 04:18:08;;;;;;;;;;;;;;;23.83;37.54;101304.03;4996666;28;957;-35
2021/06/05 04:20:34;;;;;;;;;;;;;;;23.85;37.62;101297.53;4996235;28;1914;-38
2021/06/05 04:22:59;;;;;;;;;;;;;;;24.04;37.55;101301.13;4996770;28;872;-39
2021/06/05 04:25:25;;;;;;;;;;;;;;;24.80;36.41;101300.13;4997321;28;903;-40
2021/06/05 04:27:50;;;;;;;;;;;;;;;25.11;37.10;101298.91;4996450;28;824;-33
2021/06/05 04:30:16;;;;;;;;;;;;;;;25.47;36.34;101293.44;4997001;28;729;-40
2021/06/05 04:32:42;;;;;;;;;;;;;;;25.72;36.40;101307.09;5001578;28;962;-34
2021/06/05 04:35:07;;;;;;;;;;;;;;;25.92;36.33;101302.28;5036080;28;804;-40
2021/06/05 04:37:32;;;;;;;;;;;;;;;25.96;36.26;101304.69;5036612;28;733;-40
2021/06/05 04:39:58;;;;;;;;;;;;;;;26.00;35.94;101306.03;5017725;28;1910;-33
2021/06/05 04:42:23;;;;;;;;;;;;;;;26.06;35.59;101308.06;5035861;28;812;-38
2021/06/05 04:44:48;;;;;;;;;;;;;;;26.01;35.66;101305.00;5035890;28;804;-35
2021/06/05 04:47:14;;;;;;;;;;;;;;;26.10;35.94;101305.91;5028373;28;960;-40
2021/06/05 04:49:39;;;;;;;;;;;;;;;26.06;35.84;101301.84;4996511;28;760;-40
2021/06/05 04:52:06;;;;;;;;;;;;;;;26.02;35.99;101309.41;5012060;28;1110;-39
2021/06/05 04:54:31;;;;;;;;;;;;;;;26.02;36.05;101304.88;5036511;28;811;-33
2021/06/05 04:56:56;;;;;;;;;;;;;;;26.12;35.95;101302.06;5036033;28;760;-38
2021/06/05 04:59:22;;;;;;;;;;;;;;;25.92;36.27;101304.97;5035340;28;2210;-34
2021/06/05 05:01:47;;;;;;;;;;;;;;;26.02;36.48;101307.56;5034267;28;947;-34
2021/06/05 05:04:12;;;;;;;;;;;;;;;26.00;36.33;101301.50;4997315;28;1054;-39
2021/06/05 05:06:38;;;;;;;;;;;;;;;26.07;36.42;101301.69;5000190;28;1428;-40
2021/06/05 05:09:04;;;;;;;;;;;;;;;26.08;36.29;101299.81;5002386;28;724;-39
2021/06/05 05:11:29;;;;;;;;;;;;;;;26.10;36.72;101301.38;5011130;28;761;-42
2021/06/05 05:13:54;;;;;;;;;;;;;;;26.24;36.72;101309.84;5009620;28;1102;-40
2021/06/05 05:16:20;;;;;;;;;;;;;;;26.20;36.71;101309.31;5014273;28;828;-35
2021/06/05 05:18:47;;;;;;;;;;;;;;;26.34;36.49;101305.16;5001368;28;988;-39
2021/06/05 05:21:13;;;;;;;;;;;;;;;26.41;36.38;101310.75;4995706;28;1910;-39
2021/06/05 05:23:38;;;;;;;;;;;;;;;26.25;36.55;101311.50;4997013;28;828;-37
2021/06/05 05:26:04;;;;;;;;;;;;;;;26.17;36.99;101307.78;4997577;28;892;-40
2021/06/05 05:28:29;;;;;;;;;;;;;;;26.18;36.90;101308.63;5000649;28;838;-35
2021/06/05 05:30:55;;;;;;;;;;;;;;;26.21;37.06;101304.78;5000816;28;773;-39
2021/06/05 05:33:20;;;;;;;;;;;;;;;26.27;37.16;101312.22;4999187;28;1048;-33
2021/06/05 05:35:46;;;;;;;;;;;;;;;26.22;37.33;101306.44;5000849;28;920;-40
2021/06/05 05:38:12;;;;;;;;;;;;;;;26.09;37.88;101301.53;5019644;28;801;-37
2021/06/05 05:40:37;;;;;;;;;;;;;;;25.98;38.30;101303.50;5019430;28;1901;-36
2021/06/05 05:43:03;;;;;;;;;;;;;;;25.90;38.03;101311.56;5019794;28;761;-38
2021/06/05 05:45:28;;;;;;;;;;;;;;;25.91;38.37;101303.31;5019825;28;804;-39
2021/06/05 05:47:56;;;;;;;;;;;;;;;25.95;38.11;101303.81;5009063;28;956;-38
2021/06/05 05:50:22;;;;;;;;;;;;;;;25.90;38.63;101311.56;5000053;28;785;-37
2021/06/05 05:52:47;;;;;;;;;;;;;;;25.86;38.34;101302.94;5027081;28;1074;-34
2021/06/05 05:55:13;;;;;;;;;;;;;;;25.98;38.16;101305.34;5039336;28;800;-38
2021/06/05 05:57:38;;;;;;;;;;;;;;;25.97;38.18;101298.28;5038828;28;830;-42
2021/06/05 06:00:05;;;;;;;;;;;;;;;26.01;37.78;101305.00;5032109;28;2265;-37
2021/06/05 06:02:30;;;;;;;;;;;;;;;26.03;38.39;101311.94;5010031;28;1286;-36
2021/06/05 06:04:55;;;;;;;;;;;;;;;25.99;38.47;101312.44;5012900;28;2460;-39
2021/06/05 06:07:21;;;;;;;;;;;;;;;26.00;38.63;101312.28;5019340;28;823;-40
2021/06/05 06:09:46;;;;;;;;;;;;;;;25.48;39.36;101303.19;5018807;28;835;-39
2021/06/05 06:12:11;;;;;;;;;;;;;;;25.66;39.49;101307.72;5018443;28;768;-36
2021/06/05 06:14:37;;;;;;;;;;;;;;;25.73;39.27;101306.06;5018132;28;1500;-33
2021/06/05 06:17:02;;;;;;;;;;;;;;;25.79;39.15;101305.44;5006853;28;853;-39
2021/06/05 06:19:27;;;;;;;;;;;;;;;25.76;39.55;101305.75;4981582;28;1918;-39
2021/06/05 06:21:53;;;;;;;;;;;;;;;25.79;39.70;101299.22;5013504;28;926;-41
2021/06/05 06:24:18;;;;;;;;;;;;;;;25.84;39.62;101306.81;5019475;28;761;-41
2021/06/05 06:26:44;;;;;;;;;;;;;;;25.85;39.22;101305.78;5000733;28;820;-39
2021/06/05 06:29:19;;;;;;;;;;;;;;;25.92;39.29;101309.53;4999400;28;777;-39
2021/06/05 06:31:45;;;;;;;;;;;;;;;25.95;38.55;101300.28;5000240;28;862;-39
2021/06/05 06:34:11;;;;;;;;;;;;;;;25.84;38.10;101296.03;4999037;28;938;-38
2021/06/05 06:36:36;;;;;;;;;;;;;;;25.78;38.50;101292.97;4999087;28;792;-41
2021/06/05 06:39:01;;;;;;;;;;;;;;;25.86;38.43;101289.47;5025054;28;1097;-38
2021/06/05 06:41:28;;;;;;;;;;;;;;;25.86;38.92;101296.72;5037519;28;1972;-41
2021/06/05 06:43:54;;;;;;;;;;;;;;;25.96;38.38;101291.19;5038720;28;852;-40
2021/06/05 06:46:21;;;;;;;;;;;;;;;25.92;38.04;101279.91;5038342;28;782;-39
2021/06/05 06:48:47;;;;;;;;;;;;;;;25.95;37.79;101281.41;5004067;28;940;-39
2021/06/05 06:51:13;;;;;;;;;;;;;;;26.12;37.10;101276.94;5002348;28;949;-33
2021/06/05 06:53:38;;;;;;;;;;;;;;;26.08;37.36;101273.72;5038135;28;784;-34
2021/06/05 06:56:04;;;;;;;;;;;;;;;26.64;36.38;101269.66;5037606;28;964;-30
2021/06/05 06:58:30;;;;;;;;;;;;;;;27.26;35.50;101271.00;5036130;28;856;-38
2021/06/05 07:00:55;;;;;;;;;;;;;;;26.78;34.43;101273.53;5018061;28;1909;-45
2021/06/05 07:03:20;;;;;;;;;;;;;;;26.26;35.58;101276.28;5017609;28;937;-40
2021/06/05 07:05:46;;;;;;;;;;;;;;;26.02;36.41;101269.84;5018443;28;777;-41
2021/06/05 07:08:22;;;;;;;;;;;;;;;26.03;36.82;101271.50;5018131;28;938;-44
2021/06/05 07:10:48;;;;;;;;;;;;;;;25.96;37.24;101269.63;5017928;28;911;-35
2021/06/05 07:13:13;;;;;;;;;;;;;;;26.13;37.34;101262.44;5017876;28;1212;-35
2021/06/05 07:15:39;;;;;;;;;;;;;;;26.07;37.56;101263.09;5018209;28;806;-44
2021/06/05 07:18:04;;;;;;;;;;;;;;;26.14;37.27;101267.66;5005294;28;960;-32
2021/06/05 07:20:30;;;;;;;;;;;;;;;26.05;36.93;101260.56;4998733;28;1910;-36
2021/06/05 07:22:56;;;;;;;;;;;;;;;25.87;37.42;101258.81;5002671;28;1231;-43
2021/06/05 07:25:22;;;;;;;;;;;;;;;25.87;38.04;101264.22;5017325;28;852;-44
2021/06/05 07:27:47;;;;;;;;;;;;;;;26.01;38.10;101260.03;5017775;28;801;-40
2021/06/05 07:30:13;;;;;;;;;;;;;;;26.14;37.92;101264.13;5017880;28;773;-36
2021/06/05 07:32:38;;;;;;;;;;;;;;;25.98;37.80;101259.50;5014104;28;941;-44
2021/06/05 07:35:04;;;;;;;;;;;;;;;25.99;38.05;101251.25;5017644;28;808;-43
2021/06/05 07:37:30;;;;;;;;;;;;;;;26.02;37.54;101258.19;5017518;28;780;-44
2021/06/05 07:39:55;;;;;;;;;;;;;;;26.09;37.53;101251.13;5016484;28;1901;-44
2021/06/05 07:42:20;;;;;;;;;;;;;;;26.23;37.85;101252.34;5000603;28;787;-36
2021/06/05 07:44:45;;;;;;;;;;;;;;;26.02;37.21;101256.34;5016987;28;839;-45
2021/06/05 07:47:11;;;;;;;;;;;;;;;26.07;37.63;101250.47;5014022;28;944;-39
2021/06/05 07:49:37;;;;;;;;;;;;;;;26.07;37.19;101242.38;5016426;28;795;-40
2021/06/05 07:52:03;;;;;;;;;;;;;;;26.03;37.47;101241.84;5023735;28;1014;-43
2021/06/05 07:54:28;;;;;;;;;;;;;;;26.22;37.52;101255.22;5037375;28;788;-43
2021/06/05 07:56:53;;;;;;;;;;;;;;;26.12;37.21;101252.66;5037435;28;925;-43
2021/06/05 07:59:19;;;;;;;;;;;;;;;26.19;37.85;101245.63;5037064;28;852;-44
2021/06/05 08:01:45;;;;;;;;;;;;;;;26.08;37.04;101246.75;5016622;28;873;-32
2021/06/05 08:04:10;;;;;;;;;;;;;;;26.09;37.02;101240.34;4997138;28;945;-41
2021/06/05 08:06:35;;;;;;;;;;;;;;;26.04;37.26;101240.84;5012677;28;1086;-44
2021/06/05 08:09:01;;;;;;;;;;;;;;;26.12;37.20;101239.19;5016765;28;768;-43
2021/06/05 08:11:26;;;;;;;;;;;;;;;26.21;37.16;101235.50;5016673;28;759;-38
2021/06/05 08:13:51;;;;;;;;;;;;;;;26.15;36.54;101233.47;5016992;28;1181;-42
2021/06/05 08:16:16;;;;;;;;;;;;;;;26.27;36.90;101234.00;5016049;28;854;-44
2021/06/05 08:18:42;;;;;;;;;;;;;;;26.37;36.25;101226.63;4999550;28;953;-42
2021/06/05 08:21:08;;;;;;;;;;;;;;;26.34;36.50;101226.94;4997251;28;1957;-35
2021/06/05 08:23:34;;;;;;;;;;;;;;;26.30;35.38;101233.66;4997432;28;1472;-46
2021/06/05 08:25:59;;;;;;;;;;;;;;;26.21;34.02;101237.38;4999256;28;1472;-31
2021/06/05 08:28:25;;;;;;;;;;;;;;;26.16;32.78;101233.28;4997191;28;1088;-43
2021/06/05 08:30:51;;;;;;;;;;;;;;;26.09;32.98;101232.25;4997195;28;709;-31
2021/06/05 08:33:17;;;;;;;;;;;;;;;26.23;33.00;101213.75;5001862;28;1194;-41
2021/06/05 08:35:42;;;;;;;;;;;;;;;26.19;33.56;101215.97;5008309;28;764;-32
2021/06/05 08:38:08;;;;;;;;;;;;;;;26.18;34.46;101211.56;5013755;28;784;-39
2021/06/05 08:40:54;;;;;;;;;;;;;;;26.11;34.66;101218.63;4999196;28;1883;-33
2021/06/05 08:43:38;;;;;;;;;;;;;;;26.08;35.43;101210.84;5015010;28;751;-46
2021/06/05 08:46:04;;;;;;;;;;;;;;;26.04;35.53;101203.09;4996864;28;733;-31
2021/06/05 08:48:30;;;;;;;;;;;;;;;26.22;35.10;101202.13;5002779;28;1024;-27
2021/06/05 08:51:07;;;;;;;;;;;;;;;26.24;35.59;101204.66;5017181;28;686;-46
2021/06/05 08:53:32;;;;;;;;;;;;;;;26.04;35.12;101204.97;5035652;28;1176;-34
2021/06/05 08:56:01;;;;;;;;;;;;;;;26.50;34.77;101207.25;5017758;28;1210;-29
2021/06/05 08:58:32;;;;;;;;;;;;;;;26.82;34.12;101209.28;4996596;28;788;-44
2021/06/05 09:01:01;;;;;;;;;;;;;;;26.95;34.06;101208.75;5000013;28;1898;-45
2021/06/05 09:03:27;;;;;;;;;;;;;;;27.08;33.69;101209.09;5000071;28;1012;-42
2021/06/05 09:06:22;;;;;;;;;;;;;;;26.85;33.91;101200.81;5000303;28;781;-43
2021/06/05 09:08:47;;;;;;;;;;;;;;;26.44;34.51;101199.00;4986946;28;1575;-45
2021/06/05 09:11:13;;;;;;;;;;;;;;;26.33;34.89;101200.13;5000498;28;872;-32
2021/06/05 09:13:38;;;;;;;;;;;;;;;26.23;34.65;101211.06;5000801;28;1529;-30
2021/06/05 09:16:19;;;;;;;;;;;;;;;26.28;35.33;101204.16;4999997;28;509;-29
2021/06/05 09:19:01;;;;;;;;;;;;;;;26.22;35.32;101204.84;5013979;28;874;-37
2021/06/05 09:21:33;;;;;;;;;;;;;;;26.30;34.07;101201.31;5019479;28;1919;-29
2021/06/05 09:24:17;;;;;;;;;;;;;;;26.39;33.65;101192.22;5020053;28;777;-45
2021/06/05 09:27:06;;;;;;;;;;;;;;;26.32;33.59;101193.03;5020238;28;761;-44
2021/06/05 09:29:32;;;;;;;;;;;;;;;26.44;33.77;101177.41;5009335;28;1318;-33
2021/06/05 09:32:07;;;;;;;;;;;;;;;26.67;33.74;101180.28;5000145;28;909;-43
2021/06/05 09:34:33;;;;;;;;;;;;;;;26.67;33.83;101182.13;5000515;28;745;-39
2021/06/05 09:37:01;;;;;;;;;;;;;;;26.27;34.78;101174.66;4999941;28;1263;-34
2021/06/05 09:39:38;;;;;;;;;;;;;;;26.28;34.54;101170.94;4999721;28;1902;-43
2021/06/05 09:42:04;;;;;;;;;;;;;;;26.45;34.57;101182.63;4999867;28;804;-34
2021/06/05 09:44:39;;;;;;;;;;;;;;;26.35;34.48;101179.25;5003794;28;785;-36
2021/06/05 09:47:11;;;;;;;;;;;;;;;26.49;34.35;101173.19;4998949;28;937;-29
2021/06/05 09:49:40;;;;;;;;;;;;;;;26.60;34.39;101165.75;5019660;28;922;-29
2021/06/05 09:52:09;;;;;;;;;;;;;;;26.61;34.69;101162.91;5026705;28;1121;-31
2021/06/05 09:54:54;;;;;;;;;;;;;;;26.63;34.80;101162.72;5038346;28;887;-31
2021/06/05 09:57:24;;;;;;;;;;;;;;;26.70;34.85;101169.13;5038169;28;1850;-38
2021/06/05 09:59:58;;;;;;;;;;;;;;;26.66;35.13;101162.38;5038738;28;1910;-44
2021/06/05 10:02:24;;;;;;;;;;;;;;;26.72;34.54;101164.41;5029593;28;1023;-30
2021/06/05 10:05:04;;;;;;;;;;;;;;;26.69;35.13;101162.06;4999795;28;1050;-33
2021/06/05 10:07:29;;;;;;;;;;;;;;;26.78;34.79;101158.34;4999594;28;753;-29
2021/06/05 10:10:03;;;;;;;;;;;;;;;26.80;35.02;101154.59;4999650;28;744;-32
2021/06/05 10:12:28;;;;;;;;;;;;;;;26.82;34.66;101158.00;4981202;28;837;-45
2021/06/05 10:15:12;;;;;;;;;;;;;;;26.94;34.52;101159.34;4999368;28;1062;-29
2021/06/05 10:17:38;;;;;;;;;;;;;;;27.27;34.25;101153.03;4981586;28;930;-30
2021/06/05 10:20:06;;;;;;;;;;;;;;;27.37;33.89;101161.75;4999354;28;1914;-44
2021/06/05 10:22:33;;;;;;;;;;;;;;;27.49;33.81;101159.50;4982107;28;808;-38
2021/06/05 10:24:59;;;;;;;;;;;;;;;27.56;33.66;101150.72;5009191;28;824;-45
2021/06/05 10:27:26;;;;;;;;;;;;;;;27.62;33.26;101141.88;5001336;28;796;-40
2021/06/05 10:29:53;;;;;;;;;;;;;;;27.75;33.36;101139.47;5001462;28;587;-34
2021/06/05 10:32:26;;;;;;;;;;;;;;;27.68;33.33;101141.19;4995718;28;961;-32
2021/06/05 10:35:12;;;;;;;;;;;;;;;27.61;33.44;101138.34;4981465;28;803;-45
2021/06/05 10:37:38;;;;;;;;;;;;;;;27.58;34.02;101140.53;4981960;28;781;-39
2021/06/05 10:40:13;;;;;;;;;;;;;;;27.50;33.57;101146.84;4980511;28;1910;-45
2021/06/05 10:42:40;;;;;;;;;;;;;;;27.33;33.98;101140.66;4999280;28;832;-44
2021/06/05 10:45:07;;;;;;;;;;;;;;;27.58;33.75;101138.69;4981161;28;1013;-44
2021/06/05 10:47:34;;;;;;;;;;;;;;;27.06;33.42;101137.41;4997947;28;906;-31
2021/06/05 10:50:01;;;;;;;;;;;;;;;26.93;34.30;101140.56;4981790;28;750;-40
2021/06/05 10:52:30;;;;;;;;;;;;;;;26.72;34.47;101131.19;5002656;28;1104;-32
2021/06/05 10:54:57;;;;;;;;;;;;;;;26.70;34.27;101131.34;5037722;28;808;-29
2021/06/05 10:57:22;;;;;;;;;;;;;;;26.79;34.44;101132.19;5037777;28;792;-30
2021/06/05 10:59:49;;;;;;;;;;;;;;;26.83;34.46;101125.44;5038003;28;2065;-31
2021/06/05 11:02:33;;;;;;;;;;;;;;;26.68;34.14;101129.81;5015275;28;928;-40
2021/06/05 11:04:58;;;;;;;;;;;;;;;26.78;34.50;101117.00;5018300;28;749;-29
2021/06/05 11:07:25;;;;;;;;;;;;;;;26.74;34.73;101112.97;5017835;28;884;-45
2021/06/05 11:09:51;;;;;;;;;;;;;;;26.62;34.06;101115.19;4999910;28;828;-32
2021/06/05 11:12:16;;;;;;;;;;;;;;;26.63;34.36;101123.09;5018357;28;729;-31
2021/06/05 11:14:48;;;;;;;;;;;;;;;26.74;34.90;101116.50;5017798;28;1127;-45
2021/06/05 11:17:23;;;;;;;;;;;;;;;26.60;34.79;101119.91;4996401;28;997;-32
2021/06/05 11:19:51;;;;;;;;;;;;;;;26.65;34.03;101112.97;5017684;28;1914;-36
2021/06/05 11:22:23;;;;;;;;;;;;;;;26.66;34.85;101108.41;5000459;28;796;-46
2021/06/05 11:25:04;;;;;;;;;;;;;;;26.89;33.83;101116.63;4999735;28;843;-31
2021/06/05 11:27:35;;;;;;;;;;;;;;;27.25;33.00;101101.88;5018018;28;847;-30
2021/06/05 11:30:01;;;;;;;;;;;;;;;27.21;33.88;101113.22;5016761;28;807;-29
2021/06/05 11:32:30;;;;;;;;;;;;;;;27.00;33.66;101106.50;4993552;28;973;-29
2021/06/05 11:35:00;;;;;;;;;;;;;;;26.92;33.01;101099.25;4998490;28;864;-41
2021/06/05 11:37:34;;;;;;;;;;;;;;;27.09;33.29;101089.25;4998109;28;776;-33
2021/06/05 11:40:00;;;;;;;;;;;;;;;26.63;34.53;101093.41;4998121;28;1981;-41
2021/06/05 11:42:26;;;;;;;;;;;;;;;26.99;34.00;101097.53;5000492;28;1464;-45
2021/06/05 11:44:57;;;;;;;;;;;;;;;27.38;33.07;101097.75;4997916;28;789;-42
2021/06/05 11:47:22;;;;;;;;;;;;;;;27.60;32.74;101106.94;5011253;28;901;-31
2021/06/05 11:49:49;;;;;;;;;;;;;;;27.67;33.10;101106.22;4997483;28;751;-32
2021/06/05 11:52:27;;;;;;;;;;;;;;;27.67;32.81;101096.25;5021562;28;1030;-30
2021/06/05 11:54:58;;;;;;;;;;;;;;;27.47;33.32;101109.38;5017522;28;979;-39
2021/06/05 11:57:24;;;;;;;;;;;;;;;27.65;33.66;101102.84;5017016;28;764;-31
2021/06/05 11:59:49;;;;;;;;;;;;;;;27.69;33.34;101104.22;4998911;28;1902;-30
2021/06/05 12:02:14;;;;;;;;;;;;;;;27.66;33.32;101107.25;5011852;28;983;-45
2021/06/05 12:04:47;;;;;;;;;;;;;;;27.67;33.66;101104.38;4997826;28;761;-37
2021/06/05 12:07:38;;;;;;;;;;;;;;;27.69;33.38;101098.81;4979609;28;840;-33
2021/06/05 12:10:08;;;;;;;;;;;;;;;27.49;33.88;101107.34;4993998;28;1151;-45
2021/06/05 12:12:44;;;;;;;;;;;;;;;27.72;33.83;101102.00;4996534;28;1105;-43
2021/06/05 12:15:10;;;;;;;;;;;;;;;27.17;34.74;101098.34;4979970;28;775;-33
2021/06/05 12:17:39;;;;;;;;;;;;;;;26.85;35.33;101099.09;4996380;28;925;-33
2021/06/05 12:20:08;;;;;;;;;;;;;;;26.70;35.24;101100.81;4997321;28;1979;-33
2021/06/05 12:22:33;;;;;;;;;;;;;;;26.63;34.95;101092.56;4997353;28;738;-32
2021/06/05 12:24:59;;;;;;;;;;;;;;;26.56;35.18;101092.41;4997256;28;757;-27
2021/06/05 12:27:27;;;;;;;;;;;;;;;26.39;35.54;101087.03;4979923;28;816;-37
2021/06/05 12:30:02;;;;;;;;;;;;;;;26.60;34.67;101090.22;4997314;28;749;-44
2021/06/05 12:32:28;;;;;;;;;;;;;;;26.69;34.36;101096.44;4998776;28;950;-30
2021/06/05 12:34:53;;;;;;;;;;;;;;;26.60;34.38;101087.53;4996931;28;891;-32
2021/06/05 12:37:35;;;;;;;;;;;;;;;26.48;35.36;101092.41;4997124;28;793;-29
2021/06/05 12:40:01;;;;;;;;;;;;;;;26.57;34.43;101091.41;4996820;28;1967;-33
2021/06/05 12:42:27;;;;;;;;;;;;;;;26.62;33.87;101080.94;4996876;28;753;-35
2021/06/05 12:44:54;;;;;;;;;;;;;;;26.38;35.36;101088.06;4979999;28;781;-39
2021/06/05 12:47:22;;;;;;;;;;;;;;;26.48;35.62;101079.78;5001433;28;1140;-38
2021/06/05 12:49:47;;;;;;;;;;;;;;;26.30;35.38;101077.25;4996562;28;832;-45
2021/06/05 12:52:17;;;;;;;;;;;;;;;26.32;34.59;101067.13;5014493;28;1109;-44
2021/06/05 12:54:47;;;;;;;;;;;;;;;26.50;34.81;101066.13;5036339;28;739;-39